sensor_id;sensor_type;location;lat;lon;timestamp;P1;durP1;ratioP1;P2;durP2;ratioP2
5662;SDS011;2854;42.692;23.364;2022-11-20T00:01:26;4.93;;;3.80;;
5662;SDS011;2854;42.692;23.364;2022-11-20T00:03:52;4.80;;;2.87;;
5662;SDS011;2854;42.692;23.364;2022-11-20T00:06:18;4.20;;;3.77;;
5662;SDS011;2854;42.692;23.364;2022-11-20T00:08:44;4.90;;;4.27;;
5662;SDS011;2854;42.692;23.364;2022-11-20T00:11:10;5.87;;;4.10;;
5662;SDS011;2854;42.692;23.364;2022-11-20T00:13:36;4.40;;;4.00;;
5662;SDS011;2854;42.692;23.364;2022-11-20T00:16:02;4.97;;;3.63;;
5662;SDS011;2854;42.692;23.364;2022-11-20T00:18:28;2.80;;;2.40;;
5662;SDS011;2854;42.692;23.364;2022-11-20T00:20:53;4.43;;;3.03;;
5662;SDS011;2854;42.692;23.364;2022-11-20T00:23:19;4.40;;;3.10;;
5662;SDS011;2854;42.692;23.364;2022-11-20T00:25:44;5.13;;;3.30;;
5662;SDS011;2854;42.692;23.364;2022-11-20T00:28:09;2.93;;;2.73;;
5662;SDS011;2854;42.692;23.364;2022-11-20T00:30:35;3.37;;;3.17;;
5662;SDS011;2854;42.692;23.364;2022-11-20T00:33:00;3.70;;;3.37;;
5662;SDS011;2854;42.692;23.364;2022-11-20T00:35:25;4.57;;;3.60;;
5662;SDS011;2854;42.692;23.364;2022-11-20T00:37:50;3.70;;;3.40;;
5662;SDS011;2854;42.692;23.364;2022-11-20T00:40:16;3.00;;;2.73;;
5662;SDS011;2854;42.692;23.364;2022-11-20T00:42:41;5.03;;;3.43;;
5662;SDS011;2854;42.692;23.364;2022-11-20T00:45:06;3.43;;;2.50;;
5662;SDS011;2854;42.692;23.364;2022-11-20T00:47:32;2.33;;;2.13;;
5662;SDS011;2854;42.692;23.364;2022-11-20T00:49:57;4.90;;;2.60;;
5662;SDS011;2854;42.692;23.364;2022-11-20T00:52:22;3.03;;;1.77;;
5662;SDS011;2854;42.692;23.364;2022-11-20T00:54:47;2.00;;;1.90;;
5662;SDS011;2854;42.692;23.364;2022-11-20T00:57:13;1.33;;;1.23;;
5662;SDS011;2854;42.692;23.364;2022-11-20T00:59:38;1.57;;;1.43;;
5662;SDS011;2854;42.692;23.364;2022-11-20T01:02:03;2.67;;;2.23;;
5662;SDS011;2854;42.692;23.364;2022-11-20T01:04:28;4.80;;;1.70;;
5662;SDS011;2854;42.692;23.364;2022-11-20T01:06:53;2.67;;;2.00;;
5662;SDS011;2854;42.692;23.364;2022-11-20T01:09:19;1.93;;;1.80;;
5662;SDS011;2854;42.692;23.364;2022-11-20T01:11:44;2.87;;;1.80;;
5662;SDS011;2854;42.692;23.364;2022-11-20T01:14:13;1.63;;;1.53;;
5662;SDS011;2854;42.692;23.364;2022-11-20T01:16:43;2.30;;;2.10;;
5662;SDS011;2854;42.692;23.364;2022-11-20T01:19:10;1.20;;;1.00;;
5662;SDS011;2854;42.692;23.364;2022-11-20T01:21:37;0.73;;;0.63;;
5662;SDS011;2854;42.692;23.364;2022-11-20T01:24:04;1.27;;;0.97;;
5662;SDS011;2854;42.692;23.364;2022-11-20T01:26:30;1.20;;;1.10;;
5662;SDS011;2854;42.692;23.364;2022-11-20T01:28:56;1.13;;;1.03;;
5662;SDS011;2854;42.692;23.364;2022-11-20T01:31:23;0.80;;;0.70;;
5662;SDS011;2854;42.692;23.364;2022-11-20T01:33:50;0.70;;;0.67;;
5662;SDS011;2854;42.692;23.364;2022-11-20T01:36:16;0.70;;;0.70;;
5662;SDS011;2854;42.692;23.364;2022-11-20T01:38:41;1.60;;;1.30;;
5662;SDS011;2854;42.692;23.364;2022-11-20T01:41:07;2.13;;;1.67;;
5662;SDS011;2854;42.692;23.364;2022-11-20T01:43:33;2.20;;;2.00;;
5662;SDS011;2854;42.692;23.364;2022-11-20T01:46:01;4.43;;;1.30;;
5662;SDS011;2854;42.692;23.364;2022-11-20T01:48:38;7.97;;;2.20;;
5662;SDS011;2854;42.692;23.364;2022-11-20T01:51:04;4.03;;;1.60;;
5662;SDS011;2854;42.692;23.364;2022-11-20T01:53:30;4.47;;;1.40;;
5662;SDS011;2854;42.692;23.364;2022-11-20T01:55:57;1.33;;;0.93;;
5662;SDS011;2854;42.692;23.364;2022-11-20T01:58:27;1.17;;;1.07;;
5662;SDS011;2854;42.692;23.364;2022-11-20T02:00:53;1.20;;;0.67;;
5662;SDS011;2854;42.692;23.364;2022-11-20T02:03:19;1.20;;;0.83;;
5662;SDS011;2854;42.692;23.364;2022-11-20T02:08:09;0.93;;;0.80;;
5662;SDS011;2854;42.692;23.364;2022-11-20T02:10:35;0.87;;;0.70;;
5662;SDS011;2854;42.692;23.364;2022-11-20T02:13:00;1.00;;;0.80;;
5662;SDS011;2854;42.692;23.364;2022-11-20T02:15:44;0.80;;;0.70;;
5662;SDS011;2854;42.692;23.364;2022-11-20T02:18:10;2.47;;;1.10;;
5662;SDS011;2854;42.692;23.364;2022-11-20T02:20:36;1.23;;;0.97;;
5662;SDS011;2854;42.692;23.364;2022-11-20T02:23:03;2.50;;;1.00;;
5662;SDS011;2854;42.692;23.364;2022-11-20T02:25:30;2.80;;;0.80;;
5662;SDS011;2854;42.692;23.364;2022-11-20T02:27:56;0.93;;;0.90;;
5662;SDS011;2854;42.692;23.364;2022-11-20T02:30:21;1.43;;;1.10;;
5662;SDS011;2854;42.692;23.364;2022-11-20T02:32:46;1.27;;;0.83;;
5662;SDS011;2854;42.692;23.364;2022-11-20T02:37:42;1.20;;;1.10;;
5662;SDS011;2854;42.692;23.364;2022-11-20T02:40:08;1.57;;;0.80;;
5662;SDS011;2854;42.692;23.364;2022-11-20T02:42:34;0.90;;;0.90;;
5662;SDS011;2854;42.692;23.364;2022-11-20T02:44:59;1.00;;;0.90;;
5662;SDS011;2854;42.692;23.364;2022-11-20T02:47:25;1.17;;;0.83;;
5662;SDS011;2854;42.692;23.364;2022-11-20T02:49:50;1.67;;;0.80;;
5662;SDS011;2854;42.692;23.364;2022-11-20T02:52:15;0.70;;;0.67;;
5662;SDS011;2854;42.692;23.364;2022-11-20T02:54:40;0.77;;;0.70;;
5662;SDS011;2854;42.692;23.364;2022-11-20T02:57:06;0.93;;;0.87;;
5662;SDS011;2854;42.692;23.364;2022-11-20T02:59:31;1.17;;;0.97;;
5662;SDS011;2854;42.692;23.364;2022-11-20T03:01:56;1.30;;;1.13;;
5662;SDS011;2854;42.692;23.364;2022-11-20T03:04:21;1.10;;;0.87;;
5662;SDS011;2854;42.692;23.364;2022-11-20T03:06:47;0.70;;;0.60;;
5662;SDS011;2854;42.692;23.364;2022-11-20T03:09:12;2.30;;;0.83;;
5662;SDS011;2854;42.692;23.364;2022-11-20T03:11:37;0.70;;;0.70;;
5662;SDS011;2854;42.692;23.364;2022-11-20T03:14:03;0.60;;;0.50;;
5662;SDS011;2854;42.692;23.364;2022-11-20T03:16:30;3.17;;;0.80;;
5662;SDS011;2854;42.692;23.364;2022-11-20T03:18:55;1.53;;;0.67;;
5662;SDS011;2854;42.692;23.364;2022-11-20T03:21:21;1.20;;;0.83;;
5662;SDS011;2854;42.692;23.364;2022-11-20T03:23:46;1.67;;;1.03;;
5662;SDS011;2854;42.692;23.364;2022-11-20T03:28:41;1.00;;;0.90;;
5662;SDS011;2854;42.692;23.364;2022-11-20T03:31:07;0.90;;;0.70;;
5662;SDS011;2854;42.692;23.364;2022-11-20T03:33:33;1.47;;;0.80;;
5662;SDS011;2854;42.692;23.364;2022-11-20T03:36:02;0.70;;;0.70;;
5662;SDS011;2854;42.692;23.364;2022-11-20T03:38:31;0.80;;;0.77;;
5662;SDS011;2854;42.692;23.364;2022-11-20T03:41:01;0.70;;;0.63;;
5662;SDS011;2854;42.692;23.364;2022-11-20T03:43:26;0.90;;;0.80;;
5662;SDS011;2854;42.692;23.364;2022-11-20T03:45:52;1.17;;;0.67;;
5662;SDS011;2854;42.692;23.364;2022-11-20T03:48:18;0.70;;;0.50;;
5662;SDS011;2854;42.692;23.364;2022-11-20T03:50:43;0.80;;;0.63;;
5662;SDS011;2854;42.692;23.364;2022-11-20T03:53:08;2.10;;;0.70;;
5662;SDS011;2854;42.692;23.364;2022-11-20T03:55:33;0.70;;;0.50;;
5662;SDS011;2854;42.692;23.364;2022-11-20T03:57:59;0.90;;;0.70;;
5662;SDS011;2854;42.692;23.364;2022-11-20T04:00:24;1.23;;;0.70;;
5662;SDS011;2854;42.692;23.364;2022-11-20T04:02:49;1.30;;;0.70;;
5662;SDS011;2854;42.692;23.364;2022-11-20T04:05:14;0.80;;;0.60;;
5662;SDS011;2854;42.692;23.364;2022-11-20T04:07:40;1.93;;;0.60;;
5662;SDS011;2854;42.692;23.364;2022-11-20T04:10:05;0.80;;;0.60;;
5662;SDS011;2854;42.692;23.364;2022-11-20T04:12:33;1.73;;;0.63;;
5662;SDS011;2854;42.692;23.364;2022-11-20T04:14:59;0.70;;;0.53;;
5662;SDS011;2854;42.692;23.364;2022-11-20T04:17:24;0.60;;;0.53;;
5662;SDS011;2854;42.692;23.364;2022-11-20T04:19:49;0.60;;;0.50;;
5662;SDS011;2854;42.692;23.364;2022-11-20T04:22:15;0.70;;;0.50;;
5662;SDS011;2854;42.692;23.364;2022-11-20T04:24:40;0.60;;;0.60;;
5662;SDS011;2854;42.692;23.364;2022-11-20T04:27:05;3.33;;;0.70;;
5662;SDS011;2854;42.692;23.364;2022-11-20T04:29:30;1.10;;;0.50;;
5662;SDS011;2854;42.692;23.364;2022-11-20T04:31:55;1.67;;;0.50;;
5662;SDS011;2854;42.692;23.364;2022-11-20T04:34:21;1.33;;;0.70;;
5662;SDS011;2854;42.692;23.364;2022-11-20T04:36:46;0.80;;;0.50;;
5662;SDS011;2854;42.692;23.364;2022-11-20T04:39:12;1.60;;;0.63;;
5662;SDS011;2854;42.692;23.364;2022-11-20T04:41:38;0.63;;;0.47;;
5662;SDS011;2854;42.692;23.364;2022-11-20T04:44:04;0.70;;;0.70;;
5662;SDS011;2854;42.692;23.364;2022-11-20T04:46:30;1.20;;;1.10;;
5662;SDS011;2854;42.692;23.364;2022-11-20T04:48:56;3.50;;;0.90;;
5662;SDS011;2854;42.692;23.364;2022-11-20T04:51:22;0.70;;;0.67;;
5662;SDS011;2854;42.692;23.364;2022-11-20T04:53:47;0.70;;;0.50;;
5662;SDS011;2854;42.692;23.364;2022-11-20T04:56:13;0.70;;;0.60;;
5662;SDS011;2854;42.692;23.364;2022-11-20T04:58:38;0.70;;;0.60;;
5662;SDS011;2854;42.692;23.364;2022-11-20T05:01:08;0.60;;;0.50;;
5662;SDS011;2854;42.692;23.364;2022-11-20T05:03:34;0.70;;;0.63;;
5662;SDS011;2854;42.692;23.364;2022-11-20T05:06:00;1.33;;;0.70;;
5662;SDS011;2854;42.692;23.364;2022-11-20T05:08:25;0.80;;;0.80;;
5662;SDS011;2854;42.692;23.364;2022-11-20T05:10:50;1.67;;;1.30;;
5662;SDS011;2854;42.692;23.364;2022-11-20T05:13:15;1.53;;;1.00;;
5662;SDS011;2854;42.692;23.364;2022-11-20T05:15:41;2.23;;;0.77;;
5662;SDS011;2854;42.692;23.364;2022-11-20T05:18:06;2.30;;;0.70;;
5662;SDS011;2854;42.692;23.364;2022-11-20T05:20:32;0.70;;;0.50;;
5662;SDS011;2854;42.692;23.364;2022-11-20T05:22:57;0.90;;;0.70;;
5662;SDS011;2854;42.692;23.364;2022-11-20T05:25:22;1.00;;;0.90;;
5662;SDS011;2854;42.692;23.364;2022-11-20T05:27:48;1.33;;;0.70;;
5662;SDS011;2854;42.692;23.364;2022-11-20T05:30:13;0.80;;;0.70;;
5662;SDS011;2854;42.692;23.364;2022-11-20T05:32:38;1.00;;;0.90;;
5662;SDS011;2854;42.692;23.364;2022-11-20T05:35:04;0.83;;;0.73;;
5662;SDS011;2854;42.692;23.364;2022-11-20T05:37:29;0.90;;;0.70;;
5662;SDS011;2854;42.692;23.364;2022-11-20T05:39:54;0.70;;;0.60;;
5662;SDS011;2854;42.692;23.364;2022-11-20T05:42:21;0.80;;;0.80;;
5662;SDS011;2854;42.692;23.364;2022-11-20T05:44:55;0.80;;;0.60;;
5662;SDS011;2854;42.692;23.364;2022-11-20T05:47:21;0.90;;;0.80;;
5662;SDS011;2854;42.692;23.364;2022-11-20T05:49:46;1.57;;;0.80;;
5662;SDS011;2854;42.692;23.364;2022-11-20T05:52:11;1.60;;;1.10;;
5662;SDS011;2854;42.692;23.364;2022-11-20T05:54:36;2.70;;;1.73;;
5662;SDS011;2854;42.692;23.364;2022-11-20T05:57:02;0.90;;;0.90;;
5662;SDS011;2854;42.692;23.364;2022-11-20T05:59:27;1.00;;;0.83;;
5662;SDS011;2854;42.692;23.364;2022-11-20T06:01:52;1.27;;;1.17;;
5662;SDS011;2854;42.692;23.364;2022-11-20T06:04:17;1.30;;;0.80;;
5662;SDS011;2854;42.692;23.364;2022-11-20T06:06:43;1.03;;;0.70;;
5662;SDS011;2854;42.692;23.364;2022-11-20T06:09:08;0.80;;;0.60;;
5662;SDS011;2854;42.692;23.364;2022-11-20T06:11:33;5.33;;;1.00;;
5662;SDS011;2854;42.692;23.364;2022-11-20T06:13:58;1.30;;;0.87;;
5662;SDS011;2854;42.692;23.364;2022-11-20T06:16:24;6.20;;;0.80;;
5662;SDS011;2854;42.692;23.364;2022-11-20T06:18:49;2.97;;;0.90;;
5662;SDS011;2854;42.692;23.364;2022-11-20T06:21:15;1.03;;;0.80;;
5662;SDS011;2854;42.692;23.364;2022-11-20T06:23:41;0.73;;;0.73;;
5662;SDS011;2854;42.692;23.364;2022-11-20T06:26:08;2.70;;;1.50;;
5662;SDS011;2854;42.692;23.364;2022-11-20T06:28:33;1.10;;;0.60;;
5662;SDS011;2854;42.692;23.364;2022-11-20T06:30:58;2.50;;;0.70;;
5662;SDS011;2854;42.692;23.364;2022-11-20T06:33:24;1.03;;;0.80;;
5662;SDS011;2854;42.692;23.364;2022-11-20T06:35:49;1.00;;;0.80;;
5662;SDS011;2854;42.692;23.364;2022-11-20T06:38:14;1.83;;;0.90;;
5662;SDS011;2854;42.692;23.364;2022-11-20T06:40:40;1.33;;;1.03;;
5662;SDS011;2854;42.692;23.364;2022-11-20T06:43:06;2.03;;;1.10;;
5662;SDS011;2854;42.692;23.364;2022-11-20T06:45:31;0.90;;;0.70;;
5662;SDS011;2854;42.692;23.364;2022-11-20T06:47:59;1.23;;;1.00;;
5662;SDS011;2854;42.692;23.364;2022-11-20T06:50:24;1.47;;;0.87;;
5662;SDS011;2854;42.692;23.364;2022-11-20T06:52:51;1.00;;;0.80;;
5662;SDS011;2854;42.692;23.364;2022-11-20T06:55:16;1.53;;;0.83;;
5662;SDS011;2854;42.692;23.364;2022-11-20T06:57:42;1.83;;;1.67;;
5662;SDS011;2854;42.692;23.364;2022-11-20T07:00:07;4.50;;;1.83;;
5662;SDS011;2854;42.692;23.364;2022-11-20T07:02:32;5.03;;;1.10;;
5662;SDS011;2854;42.692;23.364;2022-11-20T07:04:58;1.60;;;0.93;;
5662;SDS011;2854;42.692;23.364;2022-11-20T07:07:23;2.30;;;0.90;;
5662;SDS011;2854;42.692;23.364;2022-11-20T07:09:48;1.00;;;0.90;;
5662;SDS011;2854;42.692;23.364;2022-11-20T07:12:13;1.20;;;1.10;;
5662;SDS011;2854;42.692;23.364;2022-11-20T07:14:39;1.17;;;0.80;;
5662;SDS011;2854;42.692;23.364;2022-11-20T07:17:04;1.20;;;1.10;;
5662;SDS011;2854;42.692;23.364;2022-11-20T07:19:29;4.50;;;1.43;;
5662;SDS011;2854;42.692;23.364;2022-11-20T07:21:54;0.70;;;0.50;;
5662;SDS011;2854;42.692;23.364;2022-11-20T07:24:20;3.63;;;0.60;;
5662;SDS011;2854;42.692;23.364;2022-11-20T07:26:48;0.60;;;0.60;;
5662;SDS011;2854;42.692;23.364;2022-11-20T07:29:16;0.73;;;0.73;;
5662;SDS011;2854;42.692;23.364;2022-11-20T07:31:42;1.23;;;0.80;;
5662;SDS011;2854;42.692;23.364;2022-11-20T07:34:07;2.47;;;0.73;;
5662;SDS011;2854;42.692;23.364;2022-11-20T07:36:32;2.30;;;1.03;;
5662;SDS011;2854;42.692;23.364;2022-11-20T07:38:57;1.37;;;0.93;;
5662;SDS011;2854;42.692;23.364;2022-11-20T07:41:23;1.43;;;0.80;;
5662;SDS011;2854;42.692;23.364;2022-11-20T07:43:48;1.53;;;1.17;;
5662;SDS011;2854;42.692;23.364;2022-11-20T07:46:13;1.00;;;0.80;;
5662;SDS011;2854;42.692;23.364;2022-11-20T07:48:39;1.40;;;1.30;;
5662;SDS011;2854;42.692;23.364;2022-11-20T07:51:04;5.47;;;2.03;;
5662;SDS011;2854;42.692;23.364;2022-11-20T07:53:29;1.77;;;1.30;;
5662;SDS011;2854;42.692;23.364;2022-11-20T07:55:54;2.50;;;1.20;;
5662;SDS011;2854;42.692;23.364;2022-11-20T07:58:20;1.90;;;1.80;;
5662;SDS011;2854;42.692;23.364;2022-11-20T08:00:46;7.23;;;1.57;;
5662;SDS011;2854;42.692;23.364;2022-11-20T08:03:11;2.73;;;1.50;;
5662;SDS011;2854;42.692;23.364;2022-11-20T08:05:37;2.30;;;1.43;;
5662;SDS011;2854;42.692;23.364;2022-11-20T08:08:03;4.40;;;1.63;;
5662;SDS011;2854;42.692;23.364;2022-11-20T08:10:29;2.40;;;1.70;;
5662;SDS011;2854;42.692;23.364;2022-11-20T08:12:54;1.33;;;1.23;;
5662;SDS011;2854;42.692;23.364;2022-11-20T08:15:39;1.73;;;1.00;;
5662;SDS011;2854;42.692;23.364;2022-11-20T08:18:08;2.97;;;2.60;;
5662;SDS011;2854;42.692;23.364;2022-11-20T08:20:34;4.93;;;1.00;;
5662;SDS011;2854;42.692;23.364;2022-11-20T08:23:00;1.73;;;1.00;;
5662;SDS011;2854;42.692;23.364;2022-11-20T08:25:26;1.20;;;1.10;;
5662;SDS011;2854;42.692;23.364;2022-11-20T08:27:51;3.20;;;1.87;;
5662;SDS011;2854;42.692;23.364;2022-11-20T08:30:16;2.60;;;1.70;;
5662;SDS011;2854;42.692;23.364;2022-11-20T08:32:42;1.63;;;1.53;;
5662;SDS011;2854;42.692;23.364;2022-11-20T08:35:07;1.43;;;1.33;;
5662;SDS011;2854;42.692;23.364;2022-11-20T08:37:32;4.00;;;2.17;;
5662;SDS011;2854;42.692;23.364;2022-11-20T08:39:57;2.00;;;1.80;;
5662;SDS011;2854;42.692;23.364;2022-11-20T08:42:23;3.83;;;1.97;;
5662;SDS011;2854;42.692;23.364;2022-11-20T08:44:48;1.37;;;1.10;;
5662;SDS011;2854;42.692;23.364;2022-11-20T08:47:13;5.57;;;2.73;;
5662;SDS011;2854;42.692;23.364;2022-11-20T08:49:39;3.70;;;2.63;;
5662;SDS011;2854;42.692;23.364;2022-11-20T08:52:04;3.07;;;2.57;;
5662;SDS011;2854;42.692;23.364;2022-11-20T08:54:29;14.30;;;6.53;;
5662;SDS011;2854;42.692;23.364;2022-11-20T08:56:54;14.40;;;3.17;;
5662;SDS011;2854;42.692;23.364;2022-11-20T08:59:20;7.27;;;3.30;;
5662;SDS011;2854;42.692;23.364;2022-11-20T09:01:45;3.20;;;1.47;;
5662;SDS011;2854;42.692;23.364;2022-11-20T09:04:10;1.47;;;1.37;;
5662;SDS011;2854;42.692;23.364;2022-11-20T09:06:36;1.70;;;1.37;;
5662;SDS011;2854;42.692;23.364;2022-11-20T09:09:02;4.10;;;3.70;;
5662;SDS011;2854;42.692;23.364;2022-11-20T09:11:27;2.40;;;1.50;;
5662;SDS011;2854;42.692;23.364;2022-11-20T09:13:52;1.63;;;0.80;;
5662;SDS011;2854;42.692;23.364;2022-11-20T09:16:18;8.03;;;1.97;;
5662;SDS011;2854;42.692;23.364;2022-11-20T09:18:43;2.97;;;1.37;;
5662;SDS011;2854;42.692;23.364;2022-11-20T09:21:09;2.10;;;1.70;;
5662;SDS011;2854;42.692;23.364;2022-11-20T09:23:35;2.23;;;2.10;;
5662;SDS011;2854;42.692;23.364;2022-11-20T09:26:02;8.00;;;5.13;;
5662;SDS011;2854;42.692;23.364;2022-11-20T09:28:27;1.90;;;1.80;;
5662;SDS011;2854;42.692;23.364;2022-11-20T09:30:52;4.47;;;2.90;;
5662;SDS011;2854;42.692;23.364;2022-11-20T09:33:18;3.93;;;1.40;;
5662;SDS011;2854;42.692;23.364;2022-11-20T09:35:43;7.07;;;3.27;;
5662;SDS011;2854;42.692;23.364;2022-11-20T09:38:08;10.43;;;1.60;;
5662;SDS011;2854;42.692;23.364;2022-11-20T09:40:35;0.90;;;0.90;;
5662;SDS011;2854;42.692;23.364;2022-11-20T09:50:48;7.70;;;4.13;;
5662;SDS011;2854;42.692;23.364;2022-11-20T09:55:48;1.80;;;1.50;;
5662;SDS011;2854;42.692;23.364;2022-11-20T09:58:47;14.20;;;9.13;;
5662;SDS011;2854;42.692;23.364;2022-11-20T10:01:18;4.50;;;3.60;;
5662;SDS011;2854;42.692;23.364;2022-11-20T10:06:10;5.23;;;3.50;;
5662;SDS011;2854;42.692;23.364;2022-11-20T10:08:40;1.70;;;1.60;;
5662;SDS011;2854;42.692;23.364;2022-11-20T10:16:32;2.10;;;1.90;;
5662;SDS011;2854;42.692;23.364;2022-11-20T10:19:46;3.40;;;2.30;;
5662;SDS011;2854;42.692;23.364;2022-11-20T10:22:03;2.10;;;1.90;;
5662;SDS011;2854;42.692;23.364;2022-11-20T10:30:02;6.37;;;2.77;;
5662;SDS011;2854;42.692;23.364;2022-11-20T10:32:31;2.87;;;2.57;;
5662;SDS011;2854;42.692;23.364;2022-11-20T10:34:59;5.03;;;2.47;;
5662;SDS011;2854;42.692;23.364;2022-11-20T10:37:26;7.57;;;2.83;;
5662;SDS011;2854;42.692;23.364;2022-11-20T10:42:37;3.67;;;3.33;;
5662;SDS011;2854;42.692;23.364;2022-11-20T10:47:41;2.10;;;2.00;;
5662;SDS011;2854;42.692;23.364;2022-11-20T10:50:09;3.60;;;3.10;;
5662;SDS011;2854;42.692;23.364;2022-11-20T10:57:31;4.70;;;3.33;;
5662;SDS011;2854;42.692;23.364;2022-11-20T11:00:03;5.40;;;3.20;;
5662;SDS011;2854;42.692;23.364;2022-11-20T11:04:58;3.07;;;2.87;;
5662;SDS011;2854;42.692;23.364;2022-11-20T11:07:36;6.10;;;3.00;;
5662;SDS011;2854;42.692;23.364;2022-11-20T11:10:23;13.37;;;3.30;;
5662;SDS011;2854;42.692;23.364;2022-11-20T11:12:49;3.90;;;3.50;;
5662;SDS011;2854;42.692;23.364;2022-11-20T11:15:24;4.63;;;2.50;;
5662;SDS011;2854;42.692;23.364;2022-11-20T11:17:50;1.80;;;1.20;;
5662;SDS011;2854;42.692;23.364;2022-11-20T11:20:17;3.63;;;1.63;;
5662;SDS011;2854;42.692;23.364;2022-11-20T11:22:47;1.80;;;1.07;;
5662;SDS011;2854;42.692;23.364;2022-11-20T11:27:54;1.40;;;1.10;;
5662;SDS011;2854;42.692;23.364;2022-11-20T11:30:21;1.17;;;1.07;;
5662;SDS011;2854;42.692;23.364;2022-11-20T11:32:47;0.80;;;0.70;;
5662;SDS011;2854;42.692;23.364;2022-11-20T11:35:25;1.10;;;1.00;;
5662;SDS011;2854;42.692;23.364;2022-11-20T11:37:52;1.20;;;0.50;;
5662;SDS011;2854;42.692;23.364;2022-11-20T11:40:19;0.80;;;0.80;;
5662;SDS011;2854;42.692;23.364;2022-11-20T11:42:56;0.63;;;0.47;;
5662;SDS011;2854;42.692;23.364;2022-11-20T11:45:22;0.70;;;0.50;;
5662;SDS011;2854;42.692;23.364;2022-11-20T11:47:48;2.63;;;0.73;;
5662;SDS011;2854;42.692;23.364;2022-11-20T11:50:15;0.80;;;0.80;;
5662;SDS011;2854;42.692;23.364;2022-11-20T11:52:49;2.23;;;0.70;;
5662;SDS011;2854;42.692;23.364;2022-11-20T11:55:19;0.67;;;0.60;;
5662;SDS011;2854;42.692;23.364;2022-11-20T12:00:16;1.10;;;0.80;;
5662;SDS011;2854;42.692;23.364;2022-11-20T12:05:21;1.50;;;1.10;;
5662;SDS011;2854;42.692;23.364;2022-11-20T12:07:52;4.83;;;1.40;;
5662;SDS011;2854;42.692;23.364;2022-11-20T12:10:23;0.90;;;0.90;;
5662;SDS011;2854;42.692;23.364;2022-11-20T12:12:51;1.23;;;0.60;;
5662;SDS011;2854;42.692;23.364;2022-11-20T12:15:28;2.70;;;0.80;;
5662;SDS011;2854;42.692;23.364;2022-11-20T12:17:54;2.40;;;1.00;;
5662;SDS011;2854;42.692;23.364;2022-11-20T12:20:20;7.50;;;0.80;;
5662;SDS011;2854;42.692;23.364;2022-11-20T12:22:53;2.30;;;0.87;;
5662;SDS011;2854;42.692;23.364;2022-11-20T12:25:22;0.63;;;0.60;;
5662;SDS011;2854;42.692;23.364;2022-11-20T12:30:23;0.80;;;0.80;;
5662;SDS011;2854;42.692;23.364;2022-11-20T12:47:00;0.90;;;0.60;;
5662;SDS011;2854;42.692;23.364;2022-11-20T13:02:33;6.13;;;4.20;;
5662;SDS011;2854;42.692;23.364;2022-11-20T13:05:04;6.60;;;4.67;;
5662;SDS011;2854;42.692;23.364;2022-11-20T13:07:34;11.93;;;5.97;;
5662;SDS011;2854;42.692;23.364;2022-11-20T13:10:00;13.87;;;5.37;;
5662;SDS011;2854;42.692;23.364;2022-11-20T13:12:33;12.70;;;6.47;;
5662;SDS011;2854;42.692;23.364;2022-11-20T13:18:00;2.67;;;1.60;;
5662;SDS011;2854;42.692;23.364;2022-11-20T13:20:26;1.83;;;1.30;;
5662;SDS011;2854;42.692;23.364;2022-11-20T13:22:52;1.37;;;1.10;;
5662;SDS011;2854;42.692;23.364;2022-11-20T13:25:32;0.80;;;0.80;;
5662;SDS011;2854;42.692;23.364;2022-11-20T13:27:59;3.87;;;1.93;;
5662;SDS011;2854;42.692;23.364;2022-11-20T13:30:28;1.10;;;0.90;;
5662;SDS011;2854;42.692;23.364;2022-11-20T13:32:57;1.50;;;1.03;;
5662;SDS011;2854;42.692;23.364;2022-11-20T13:38:01;4.70;;;1.27;;
5662;SDS011;2854;42.692;23.364;2022-11-20T13:40:27;1.60;;;1.37;;
5662;SDS011;2854;42.692;23.364;2022-11-20T13:45:25;1.90;;;1.77;;
5662;SDS011;2854;42.692;23.364;2022-11-20T13:47:52;2.70;;;2.50;;
5662;SDS011;2854;42.692;23.364;2022-11-20T13:50:17;3.90;;;3.40;;
5662;SDS011;2854;42.692;23.364;2022-11-20T13:52:47;2.70;;;1.83;;
5662;SDS011;2854;42.692;23.364;2022-11-20T13:55:26;9.47;;;2.00;;
5662;SDS011;2854;42.692;23.364;2022-11-20T14:00:52;3.63;;;1.90;;
5662;SDS011;2854;42.692;23.364;2022-11-20T14:03:23;3.00;;;2.17;;
5662;SDS011;2854;42.692;23.364;2022-11-20T14:05:54;5.93;;;3.70;;
5662;SDS011;2854;42.692;23.364;2022-11-20T14:08:39;3.30;;;3.10;;
5662;SDS011;2854;42.692;23.364;2022-11-20T14:11:15;5.27;;;3.07;;
5662;SDS011;2854;42.692;23.364;2022-11-20T14:13:55;3.80;;;2.90;;
5662;SDS011;2854;42.692;23.364;2022-11-20T14:16:21;2.53;;;2.20;;
5662;SDS011;2854;42.692;23.364;2022-11-20T14:18:46;5.70;;;2.40;;
5662;SDS011;2854;42.692;23.364;2022-11-20T14:21:11;6.47;;;3.70;;
5662;SDS011;2854;42.692;23.364;2022-11-20T14:23:45;4.50;;;3.73;;
5662;SDS011;2854;42.692;23.364;2022-11-20T14:26:12;3.50;;;2.57;;
5662;SDS011;2854;42.692;23.364;2022-11-20T14:28:39;5.50;;;3.40;;
5662;SDS011;2854;42.692;23.364;2022-11-20T14:31:08;5.77;;;3.33;;
5662;SDS011;2854;42.692;23.364;2022-11-20T14:33:35;3.53;;;2.43;;
5662;SDS011;2854;42.692;23.364;2022-11-20T14:36:01;5.03;;;3.53;;
5662;SDS011;2854;42.692;23.364;2022-11-20T14:38:27;3.70;;;2.93;;
5662;SDS011;2854;42.692;23.364;2022-11-20T14:40:52;3.80;;;2.73;;
5662;SDS011;2854;42.692;23.364;2022-11-20T14:43:22;7.53;;;3.20;;
5662;SDS011;2854;42.692;23.364;2022-11-20T14:46:02;7.47;;;4.77;;
5662;SDS011;2854;42.692;23.364;2022-11-20T14:48:31;6.43;;;3.97;;
5662;SDS011;2854;42.692;23.364;2022-11-20T14:50:57;9.90;;;4.53;;
5662;SDS011;2854;42.692;23.364;2022-11-20T14:53:23;5.40;;;4.10;;
5662;SDS011;2854;42.692;23.364;2022-11-20T14:55:54;8.90;;;4.37;;
5662;SDS011;2854;42.692;23.364;2022-11-20T14:58:23;7.17;;;4.70;;
5662;SDS011;2854;42.692;23.364;2022-11-20T15:03:30;5.13;;;4.53;;
5662;SDS011;2854;42.692;23.364;2022-11-20T15:05:55;11.43;;;6.53;;
5662;SDS011;2854;42.692;23.364;2022-11-20T15:08:21;5.20;;;4.33;;
5662;SDS011;2854;42.692;23.364;2022-11-20T15:10:49;16.03;;;5.70;;
5662;SDS011;2854;42.692;23.364;2022-11-20T15:13:16;7.10;;;5.40;;
5662;SDS011;2854;42.692;23.364;2022-11-20T15:15:49;12.70;;;5.70;;
5662;SDS011;2854;42.692;23.364;2022-11-20T15:18:19;9.73;;;5.60;;
5662;SDS011;2854;42.692;23.364;2022-11-20T15:20:45;8.20;;;5.37;;
5662;SDS011;2854;42.692;23.364;2022-11-20T15:23:11;16.63;;;5.20;;
5662;SDS011;2854;42.692;23.364;2022-11-20T15:25:37;5.60;;;4.90;;
5662;SDS011;2854;42.692;23.364;2022-11-20T15:28:02;8.20;;;5.53;;
5662;SDS011;2854;42.692;23.364;2022-11-20T15:30:28;5.73;;;4.57;;
5662;SDS011;2854;42.692;23.364;2022-11-20T15:32:53;5.20;;;3.90;;
5662;SDS011;2854;42.692;23.364;2022-11-20T15:35:18;4.93;;;3.30;;
5662;SDS011;2854;42.692;23.364;2022-11-20T15:37:44;3.10;;;2.53;;
5662;SDS011;2854;42.692;23.364;2022-11-20T15:40:09;2.20;;;2.00;;
5662;SDS011;2854;42.692;23.364;2022-11-20T15:42:34;1.50;;;1.40;;
5662;SDS011;2854;42.692;23.364;2022-11-20T15:45:00;2.00;;;1.80;;
5662;SDS011;2854;42.692;23.364;2022-11-20T15:47:27;4.23;;;2.13;;
5662;SDS011;2854;42.692;23.364;2022-11-20T15:49:52;1.43;;;1.33;;
5662;SDS011;2854;42.692;23.364;2022-11-20T15:52:18;1.33;;;1.23;;
5662;SDS011;2854;42.692;23.364;2022-11-20T15:54:43;3.47;;;1.30;;
5662;SDS011;2854;42.692;23.364;2022-11-20T15:57:08;1.50;;;1.37;;
5662;SDS011;2854;42.692;23.364;2022-11-20T15:59:34;4.30;;;1.80;;
5662;SDS011;2854;42.692;23.364;2022-11-20T16:02:01;2.40;;;1.80;;
5662;SDS011;2854;42.692;23.364;2022-11-20T16:04:27;1.50;;;1.40;;
5662;SDS011;2854;42.692;23.364;2022-11-20T16:06:52;1.30;;;1.17;;
5662;SDS011;2854;42.692;23.364;2022-11-20T16:09:17;2.63;;;1.40;;
5662;SDS011;2854;42.692;23.364;2022-11-20T16:11:43;1.47;;;1.37;;
5662;SDS011;2854;42.692;23.364;2022-11-20T16:14:10;2.00;;;1.70;;
5662;SDS011;2854;42.692;23.364;2022-11-20T16:16:54;1.70;;;1.60;;
5662;SDS011;2854;42.692;23.364;2022-11-20T16:19:19;6.40;;;3.20;;
5662;SDS011;2854;42.692;23.364;2022-11-20T16:21:44;4.50;;;3.13;;
5662;SDS011;2854;42.692;23.364;2022-11-20T16:24:10;2.33;;;2.13;;
5662;SDS011;2854;42.692;23.364;2022-11-20T16:26:37;4.00;;;3.60;;
5662;SDS011;2854;42.692;23.364;2022-11-20T16:29:03;6.67;;;3.87;;
5662;SDS011;2854;42.692;23.364;2022-11-20T16:31:29;4.40;;;3.83;;
5662;SDS011;2854;42.692;23.364;2022-11-20T16:33:55;2.80;;;1.93;;